createdAt,value
2022-09-01T00:00:03.065Z,98461.56
2022-09-01T00:02:31.177Z,98465.41
2022-09-01T00:04:59.140Z,98459.28
2022-09-01T00:07:30.733Z,98459.53
2022-09-01T00:10:02.130Z,98454.56
2022-09-01T00:12:30.106Z,98463.56
2022-09-01T00:14:57.491Z,98453.56
2022-09-01T00:17:25.392Z,98450.66
2022-09-01T00:19:52.685Z,98459.72
2022-09-01T00:22:19.712Z,98452.69
2022-09-01T00:24:47.118Z,98452.50
2022-09-01T00:27:14.174Z,98443.16
2022-09-01T00:29:43.338Z,98442.22
2022-09-01T00:32:11.931Z,98438.59
2022-09-01T00:34:39.799Z,98437.16
2022-09-01T00:37:07.149Z,98448.84
2022-09-01T00:39:34.323Z,98446.44
2022-09-01T00:42:01.540Z,98445.75
2022-09-01T00:44:29.581Z,98449.34
2022-09-01T00:46:59.821Z,98445.84
2022-09-01T00:49:39.829Z,98448.97
2022-09-01T00:52:22.670Z,98449.19
2022-09-01T00:54:53.503Z,98447.44
2022-09-01T00:57:21.669Z,98432.25
2022-09-01T01:00:02.336Z,98430.03
2022-09-01T01:02:29.650Z,98427.34
2022-09-01T01:05:00.870Z,98417.81
2022-09-01T01:07:29.200Z,98419.47
2022-09-01T01:09:56.904Z,98407.47
2022-09-01T01:12:24.011Z,98411.09
2022-09-01T01:14:51.754Z,98406.66
2022-09-01T01:17:21.647Z,98406.66
2022-09-01T01:20:16.340Z,98404.97
2022-09-01T01:23:09.287Z,98410.66
2022-09-01T01:25:45.020Z,98398.78
2022-09-01T01:28:16.772Z,98393.41
2022-09-01T01:30:51.499Z,98389.56
2022-09-01T01:33:23.330Z,98398.97
2022-09-01T01:35:52.322Z,98394.59
2022-09-01T01:38:23.223Z,98401.19
2022-09-01T01:40:52.048Z,98391.28
2022-09-01T01:43:23.609Z,98387.22
2022-09-01T01:45:55.434Z,98387.72
2022-09-01T01:48:24.304Z,98389.69
2022-09-01T01:50:56.113Z,98384.63
2022-09-01T01:53:23.352Z,98384.63
2022-09-01T01:55:50.851Z,98388.22
2022-09-01T01:58:20.218Z,98387.00
2022-09-01T02:00:49.276Z,98382.56
2022-09-01T02:03:19.396Z,98365.50
2022-09-01T02:05:49.188Z,98366.03
2022-09-01T02:08:18.704Z,98360.84
2022-09-01T02:10:48.136Z,98368.91
2022-09-01T02:13:17.104Z,98369.09
2022-09-01T02:15:54.739Z,98363.72
2022-09-01T02:18:27.337Z,98365.38
2022-09-01T02:20:56.083Z,98350.94
2022-09-01T02:23:24.779Z,98349.19
2022-09-01T02:26:15.494Z,98342.88
2022-09-01T02:28:44.495Z,98345.13
2022-09-01T02:31:12.643Z,98338.09
2022-09-01T02:33:44.410Z,98338.28
2022-09-01T02:36:14.570Z,98333.84
2022-09-01T02:38:46.700Z,98342.22
2022-09-01T02:41:15.362Z,98337.06
2022-09-01T02:43:46.562Z,98326.53
2022-09-01T02:46:16.116Z,98317.25
2022-09-01T02:48:46.404Z,98322.63
2022-09-01T02:51:17.422Z,98326.09
2022-09-01T02:53:48.326Z,98320.94
2022-09-01T02:56:15.679Z,98312.09
2022-09-01T02:58:47.235Z,98317.94
2022-09-01T03:01:22.957Z,98312.94
2022-09-01T03:03:55.834Z,98311.66
2022-09-01T03:06:24.708Z,98316.75
2022-09-01T03:08:59.967Z,98316.44
2022-09-01T03:11:29.764Z,98308.28
2022-09-01T03:13:57.167Z,98305.53
2022-09-01T03:16:24.794Z,98306.69
2022-09-01T03:18:52.316Z,98319.06
2022-09-01T03:21:21.207Z,98319.19
2022-09-01T03:23:49.458Z,98321.91
2022-09-01T03:26:19.148Z,98324.91
2022-09-01T03:28:47.152Z,98324.41
2022-09-01T03:31:14.434Z,98316.16
2022-09-01T03:33:42.449Z,98327.59
2022-09-01T03:36:15.341Z,98333.25
2022-09-01T03:38:44.352Z,98335.00
2022-09-01T03:41:13.564Z,98344.94
2022-09-01T03:43:45.966Z,98350.09
2022-09-01T03:46:24.650Z,98349.81
2022-09-01T03:48:58.906Z,98335.16
2022-09-01T03:51:26.623Z,98328.06
2022-09-01T03:53:55.241Z,98330.22
2022-09-01T03:56:27.599Z,98328.50
2022-09-01T03:59:00.324Z,98334.53
2022-09-01T04:01:33.982Z,98343.75
2022-09-01T04:04:01.655Z,98335.16
2022-09-01T04:06:30.754Z,98332.56
2022-09-01T04:09:03.492Z,98334.88
2022-09-01T04:11:32.230Z,98329.34
2022-09-01T04:14:00.385Z,98335.47
2022-09-01T04:16:49.812Z,98347.81
2022-09-01T04:19:25.720Z,98361.97
2022-09-01T04:22:00.168Z,98343.25
2022-09-01T04:24:32.082Z,98364.00
2022-09-01T04:27:02.514Z,98362.72
2022-09-01T04:29:32.186Z,98363.91
2022-09-01T04:32:10.022Z,98377.13
2022-09-01T04:34:38.915Z,98345.88
2022-09-01T04:37:13.456Z,98360.06
2022-09-01T04:39:52.575Z,98368.94
2022-09-01T04:42:24.429Z,98353.56
2022-09-01T04:44:57.896Z,98362.09
2022-09-01T04:47:36.158Z,98374.78
2022-09-01T04:50:06.214Z,98364.22
2022-09-01T04:52:33.358Z,98350.50
2022-09-01T04:55:00.895Z,98348.75
2022-09-01T04:57:27.965Z,98351.53
2022-09-01T04:59:57.177Z,98340.56
2022-09-01T05:02:27.422Z,98362.41
2022-09-01T05:04:55.475Z,98382.38
2022-09-01T05:07:23.944Z,98373.44
2022-09-01T05:09:57.995Z,98364.72
2022-09-01T05:12:27.942Z,98378.69
2022-09-01T05:14:56.340Z,98388.97
2022-09-01T05:17:23.664Z,98406.84
2022-09-01T05:19:51.354Z,98414.66
2022-09-01T05:22:23.373Z,98410.03
2022-09-01T05:24:54.995Z,98411.72
2022-09-01T05:27:23.150Z,98412.38
2022-09-01T05:29:50.756Z,98421.34
2022-09-01T05:32:17.963Z,98417.34
2022-09-01T05:34:46.360Z,98405.88
2022-09-01T05:37:14.819Z,98410.88
2022-09-01T05:39:42.458Z,98411.28
2022-09-01T05:42:09.649Z,98417.97
2022-09-01T05:44:39.697Z,98408.88
2022-09-01T05:47:09.214Z,98420.47
2022-09-01T05:49:36.429Z,98408.50
2022-09-01T05:52:03.747Z,98410.72
2022-09-01T05:54:30.915Z,98412.75
2022-09-01T05:57:17.487Z,98408.03
2022-09-01T05:59:54.322Z,98425.75
2022-09-01T06:02:23.608Z,98418.78
2022-09-01T06:04:50.853Z,98412.25
2022-09-01T06:07:25.279Z,98403.53
2022-09-01T06:09:53.961Z,98408.91
2022-09-01T06:12:24.164Z,98408.19
2022-09-01T06:14:54.071Z,98420.94
2022-09-01T06:17:25.692Z,98428.97
2022-09-01T06:19:56.463Z,98423.63
2022-09-01T06:22:25.420Z,98432.31
2022-09-01T06:24:59.565Z,98419.16
2022-09-01T06:27:29.664Z,98434.97
2022-09-01T06:29:58.521Z,98445.50
2022-09-01T06:32:36.320Z,98440.91
2022-09-01T06:35:05.914Z,98447.00
2022-09-01T06:37:35.460Z,98443.84
2022-09-01T06:40:04.070Z,98446.25
2022-09-01T06:42:35.424Z,98456.97
2022-09-01T06:45:02.619Z,98456.25
2022-09-01T06:47:30.091Z,98460.41
2022-09-01T06:49:59.198Z,98452.59
2022-09-01T06:52:27.025Z,98464.31
2022-09-01T06:54:54.685Z,98467.00
2022-09-01T07:00:21.547Z,98469.66
2022-09-01T07:02:55.084Z,98468.25
2022-09-01T07:08:13.734Z,98472.97
2022-09-01T07:13:36.389Z,98463.69
2022-09-01T07:18:59.081Z,98454.44
2022-09-01T07:24:18.469Z,98466.13
2022-09-01T07:26:50.961Z,98458.31
2022-09-01T07:29:20.295Z,98470.25
2022-09-01T07:31:52.024Z,98473.16
2022-09-01T07:34:39.696Z,98463.16
2022-09-01T07:39:56.466Z,98477.50
2022-09-01T07:42:31.434Z,98470.03
2022-09-01T07:45:29.197Z,98468.16
2022-09-01T07:47:59.723Z,98467.19
2022-09-01T07:53:21.983Z,98473.25
2022-09-01T07:55:51.528Z,98471.25
2022-09-01T07:58:25.137Z,98473.13
2022-09-01T08:00:53.639Z,98473.56
2022-09-01T08:03:23.828Z,98475.72
2022-09-01T08:05:55.930Z,98475.72
2022-09-01T08:08:27.947Z,98474.25
2022-09-01T08:11:04.255Z,98475.94
2022-09-01T08:13:40.733Z,98471.31
2022-09-01T08:16:18.216Z,98474.94
2022-09-01T08:18:49.182Z,98468.56
2022-09-01T08:21:19.264Z,98486.06
2022-09-01T08:23:48.101Z,98476.53
2022-09-01T08:26:17.787Z,98471.81
2022-09-01T08:28:46.480Z,98477.34
2022-09-01T08:31:18.086Z,98465.75
2022-09-01T08:33:47.731Z,98467.38
2022-09-01T08:36:21.410Z,98469.78
2022-09-01T08:38:51.324Z,98466.09
2022-09-01T08:41:28.790Z,98467.50
2022-09-01T08:44:10.051Z,98468.78
2022-09-01T08:46:43.318Z,98470.41
2022-09-01T08:49:26.255Z,98470.41
2022-09-01T08:52:20.987Z,98467.66
2022-09-01T08:54:57.204Z,98470.06
2022-09-01T08:57:27.713Z,98479.47
2022-09-01T08:59:54.831Z,98486.84
2022-09-01T09:02:48.066Z,98489.06
2022-09-01T09:05:17.866Z,98489.88
2022-09-01T09:07:51.813Z,98493.22
2022-09-01T09:10:24.593Z,98498.59
2022-09-01T09:13:31.826Z,98498.00
2022-09-01T09:16:26.692Z,98498.69
2022-09-01T09:18:59.994Z,98498.59
2022-09-01T09:21:47.379Z,98508.19
2022-09-01T09:24:52.746Z,98505.72
2022-09-01T09:27:42.397Z,98506.38
2022-09-01T09:30:11.799Z,98515.91
2022-09-01T09:35:46.845Z,98527.06
2022-09-01T09:38:21.036Z,98522.09
2022-09-01T09:41:19.942Z,98527.47
2022-09-01T09:43:59.200Z,98527.22
2022-09-01T09:46:32.586Z,98527.94
2022-09-01T09:49:36.178Z,98526.47
2022-09-01T09:52:03.743Z,98538.75
2022-09-01T09:54:33.456Z,98540.72
2022-09-01T09:57:09.657Z,98537.81
2022-09-01T10:00:01.233Z,98540.47
2022-09-01T10:02:37.705Z,98540.78
2022-09-01T10:05:25.402Z,98537.97
2022-09-01T10:07:53.505Z,98543.63
2022-09-01T10:10:57.702Z,98550.97
2022-09-01T10:13:29.444Z,98549.03
2022-09-01T10:16:03.853Z,98557.34
2022-09-01T10:18:45.155Z,98553.91
2022-09-01T10:21:35.619Z,98556.09
2022-09-01T10:24:17.730Z,98562.72
2022-09-01T10:26:52.434Z,98562.72
2022-09-01T10:29:27.944Z,98560.22
2022-09-01T10:32:21.295Z,98560.03
2022-09-01T10:34:45.402Z,98562.53
2022-09-01T10:37:16.018Z,98568.72
2022-09-01T10:40:30.388Z,98577.78
2022-09-01T10:43:19.987Z,98574.63
2022-09-01T10:45:53.338Z,98579.50
2022-09-01T10:48:46.265Z,98580.00
2022-09-01T10:51:21.013Z,98583.97
2022-09-01T10:53:53.213Z,98588.19
2022-09-01T10:56:50.804Z,98581.63
2022-09-01T10:59:35.689Z,98582.13
2022-09-01T11:02:27.935Z,98584.31
2022-09-01T11:04:55.504Z,98586.28
2022-09-01T11:07:44.324Z,98588.50
2022-09-01T11:10:35.595Z,98595.16
2022-09-01T11:13:23.474Z,98600.97
2022-09-01T11:15:50.723Z,98601.72
2022-09-01T11:18:27.506Z,98598.28
2022-09-01T11:20:56.435Z,98599.22
2022-09-01T11:23:31.788Z,98596.34
2022-09-01T11:26:22.756Z,98595.16
2022-09-01T11:28:50.077Z,98596.16
2022-09-01T11:31:29.151Z,98605.00
2022-09-01T11:34:04.253Z,98596.72
2022-09-01T11:36:36.369Z,98600.88
2022-09-01T11:39:08.241Z,98600.41
2022-09-01T11:41:43.018Z,98601.16
2022-09-01T11:44:31.107Z,98599.16
2022-09-01T11:47:14.416Z,98597.19
2022-09-01T11:49:50.705Z,98602.03
2022-09-01T11:52:20.136Z,98599.34
2022-09-01T11:54:47.261Z,98597.84
2022-09-01T11:57:19.752Z,98589.06
2022-09-01T11:59:47.004Z,98594.72
2022-09-01T12:02:36.990Z,98592.47
2022-09-01T12:05:25.713Z,98596.56
2022-09-01T12:07:53.520Z,98598.97
2022-09-01T12:10:33.884Z,98597.75
2022-09-01T12:13:23.087Z,98599.41
2022-09-01T12:16:22.229Z,98599.88
2022-09-01T12:18:52.921Z,98598.66
2022-09-01T12:21:25.263Z,98597.91
2022-09-01T12:23:52.993Z,98601.75
2022-09-01T12:26:30.609Z,98598.50
2022-09-01T12:28:57.786Z,98598.19
2022-09-01T12:31:26.612Z,98602.81
2022-09-01T12:33:56.036Z,98606.91
2022-09-01T12:36:30.074Z,98602.75
2022-09-01T12:39:18.146Z,98603.84
2022-09-01T12:42:06.920Z,98601.56
2022-09-01T12:44:39.799Z,98600.78
2022-09-01T12:47:10.524Z,98594.38
2022-09-01T12:49:50.758Z,98598.50
2022-09-01T12:52:22.322Z,98599.44
2022-09-01T12:55:11.623Z,98593.13
2022-09-01T12:57:45.653Z,98595.84
2022-09-01T13:00:13.102Z,98589.00
2022-09-01T13:02:50.095Z,98586.81
2022-09-01T13:05:31.097Z,98587.38
2022-09-01T13:08:04.454Z,98584.69
2022-09-01T13:10:35.176Z,98585.38
2022-09-01T13:13:02.303Z,98589.00
2022-09-01T13:15:29.415Z,98589.16
2022-09-01T13:17:56.521Z,98595.50
2022-09-01T13:20:24.136Z,98583.97
2022-09-01T13:22:51.669Z,98584.19
2022-09-01T13:25:20.868Z,98576.88
2022-09-01T13:27:48.469Z,98575.16
2022-09-01T13:30:18.796Z,98588.09
2022-09-01T13:35:34.752Z,98567.16
2022-09-01T13:38:02.029Z,98568.47
2022-09-01T13:40:29.129Z,98557.72
2022-09-01T13:42:56.326Z,98546.81
2022-09-01T13:45:25.783Z,98551.22
2022-09-01T13:53:28.256Z,98548.53
2022-09-01T13:55:55.337Z,98542.72
2022-09-01T13:58:22.544Z,98542.22
2022-09-01T14:00:51.253Z,98546.78
2022-09-01T14:03:23.861Z,98545.84
2022-09-01T14:05:51.479Z,98543.50
2022-09-01T14:08:21.740Z,98537.66
2022-09-01T14:10:51.927Z,98539.28
2022-09-01T14:13:21.589Z,98540.28
2022-09-01T14:15:49.530Z,98534.75
2022-09-01T14:18:17.676Z,98531.28
2022-09-01T14:20:47.750Z,98519.31
2022-09-01T14:23:15.971Z,98525.25
2022-09-01T14:25:46.856Z,98515.81
2022-09-01T14:28:14.535Z,98511.75
2022-09-01T14:30:43.831Z,98509.94
2022-09-01T14:33:11.272Z,98508.59
2022-09-01T14:35:45.304Z,98509.41
2022-09-01T14:38:14.276Z,98510.91
2022-09-01T14:40:43.295Z,98513.25
2022-09-01T14:43:14.589Z,98507.94
2022-09-01T14:45:46.188Z,98503.50
2022-09-01T14:48:14.609Z,98499.50
2022-09-01T14:50:44.286Z,98499.69
2022-09-01T14:53:12.669Z,98497.38
2022-09-01T14:55:43.622Z,98495.84
2022-09-01T14:58:10.991Z,98503.81
2022-09-01T15:00:42.135Z,98495.69
2022-09-01T15:03:10.051Z,98502.50
2022-09-01T15:05:39.860Z,98504.19
2022-09-01T15:08:08.413Z,98506.88
2022-09-01T15:10:36.826Z,98499.03
2022-09-01T15:13:04.733Z,98495.25
2022-09-01T15:15:32.574Z,98489.22
2022-09-01T15:18:00.997Z,98484.78
2022-09-01T15:20:47.681Z,98486.41
2022-09-01T15:23:18.427Z,98484.81
2022-09-01T15:25:45.547Z,98480.66
2022-09-01T15:28:13.267Z,98477.84
2022-09-01T15:30:41.379Z,98479.38
2022-09-01T15:33:13.336Z,98481.31
2022-09-01T15:35:43.009Z,98479.59
2022-09-01T15:38:10.634Z,98470.94
2022-09-01T15:40:45.427Z,98478.88
2022-09-01T15:43:21.323Z,98475.78
2022-09-01T15:45:48.810Z,98475.22
2022-09-01T15:48:16.137Z,98477.69
2022-09-01T15:50:43.257Z,98474.78
2022-09-01T15:53:13.459Z,98477.59
2022-09-01T15:55:45.916Z,98470.53
2022-09-01T15:58:15.565Z,98464.25
2022-09-01T16:00:44.535Z,98456.09
2022-09-01T16:03:12.159Z,98461.53
2022-09-01T16:05:40.118Z,98458.75
2022-09-01T16:08:11.892Z,98460.50
2022-09-01T16:10:42.520Z,98461.00
2022-09-01T16:13:11.071Z,98456.34
2022-09-01T16:15:47.339Z,98463.25
2022-09-01T16:18:14.328Z,98469.28
2022-09-01T16:21:03.080Z,98468.66
2022-09-01T16:23:42.191Z,98465.97
2022-09-01T16:26:09.781Z,98472.09
2022-09-01T16:28:38.190Z,98465.59
2022-09-01T16:31:12.686Z,98465.19
2022-09-01T16:33:43.331Z,98470.56
2022-09-01T16:36:17.922Z,98475.09
2022-09-01T16:38:50.306Z,98461.22
2022-09-01T16:41:44.750Z,98460.41
2022-09-01T16:44:38.022Z,98466.00
2022-09-01T16:47:26.010Z,98467.03
2022-09-01T16:50:16.449Z,98468.47
2022-09-01T16:53:14.433Z,98467.03
2022-09-01T16:56:08.339Z,98459.78
2022-09-01T16:58:48.903Z,98467.66
2022-09-01T17:02:02.951Z,98465.31
2022-09-01T17:04:42.516Z,98463.16
2022-09-01T17:07:15.461Z,98461.97
2022-09-01T17:09:46.318Z,98472.00
2022-09-01T17:12:41.141Z,98473.69
2022-09-01T17:15:14.813Z,98471.94
2022-09-01T17:18:05.358Z,98468.13
2022-09-01T17:20:40.406Z,98463.63
2022-09-01T17:23:12.342Z,98469.63
2022-09-01T17:25:54.305Z,98461.28
2022-09-01T17:28:30.366Z,98466.44
2022-09-01T17:31:06.146Z,98462.50
2022-09-01T17:33:55.475Z,98469.56
2022-09-01T17:36:47.161Z,98471.38
2022-09-01T17:39:45.205Z,98466.59
2022-09-01T17:42:54.121Z,98469.88
2022-09-01T17:45:30.450Z,98463.25
2022-09-01T17:48:12.740Z,98466.91
2022-09-01T17:51:03.678Z,98462.56
2022-09-01T17:53:44.249Z,98453.56
2022-09-01T17:56:45.923Z,98452.00
2022-09-01T17:59:25.324Z,98450.91
2022-09-01T18:02:10.245Z,98451.56
2022-09-01T18:04:57.681Z,98450.97
2022-09-01T18:07:56.861Z,98455.63
2022-09-01T18:10:32.893Z,98464.03
2022-09-01T18:13:04.415Z,98459.59
2022-09-01T18:15:45.631Z,98445.44
2022-09-01T18:18:54.721Z,98445.88
2022-09-01T18:21:26.692Z,98454.59
2022-09-01T18:24:18.398Z,98452.56
2022-09-01T18:26:49.042Z,98455.91
2022-09-01T18:29:16.463Z,98460.63
2022-09-01T18:32:05.196Z,98459.53
2022-09-01T18:34:38.132Z,98466.94
2022-09-01T18:37:33.229Z,98472.47
2022-09-01T18:40:25.213Z,98461.44
2022-09-01T18:42:55.021Z,98464.63
2022-09-01T18:45:37.672Z,98476.53
2022-09-01T18:48:33.934Z,98484.88
2022-09-01T18:51:19.821Z,98485.88
2022-09-01T18:54:11.758Z,98485.19
2022-09-01T18:56:47.505Z,98491.28
2022-09-01T18:59:14.597Z,98494.22
2022-09-01T19:01:54.476Z,98512.63
2022-09-01T19:04:21.553Z,98497.97
2022-09-01T19:07:08.914Z,98503.97
2022-09-01T19:09:49.903Z,98508.13
2022-09-01T19:12:31.313Z,98513.06
2022-09-01T19:15:12.108Z,98512.63
2022-09-01T19:18:06.227Z,98512.16
2022-09-01T19:27:28.679Z,98522.25
2022-09-01T19:30:02.353Z,98512.44
2022-09-01T19:32:30.772Z,98512.88
2022-09-01T19:35:13.616Z,98515.31
2022-09-01T19:37:41.567Z,98511.19
2022-09-01T19:40:10.573Z,98523.03
2022-09-01T19:42:40.175Z,98526.94
2022-09-01T19:45:21.058Z,98532.59
2022-09-01T19:47:54.374Z,98528.94
2022-09-01T19:50:24.784Z,98533.09
2022-09-01T19:53:00.841Z,98542.13
2022-09-01T19:55:31.858Z,98541.91
2022-09-01T19:58:19.590Z,98543.41
2022-09-01T20:00:55.468Z,98547.59
2022-09-01T20:03:24.811Z,98546.59
2022-09-01T20:06:00.708Z,98548.78
2022-09-01T20:08:59.191Z,98564.59
2022-09-01T20:11:45.199Z,98564.59
2022-09-01T20:14:37.361Z,98563.38
2022-09-01T20:17:08.360Z,98571.66
2022-09-01T20:19:47.209Z,98564.53
2022-09-01T20:22:33.930Z,98568.47
2022-09-01T20:25:22.671Z,98576.34
2022-09-01T20:27:58.125Z,98583.16
2022-09-01T20:30:37.397Z,98591.91
2022-09-01T20:33:09.334Z,98603.34
2022-09-01T20:36:01.484Z,98613.38
2022-09-01T20:39:09.967Z,98614.81
2022-09-01T20:41:50.590Z,98629.47
2022-09-01T20:44:40.841Z,98629.69
2022-09-01T20:47:07.952Z,98628.44
2022-09-01T20:49:38.616Z,98643.84
2022-09-01T20:52:32.728Z,98649.22
2022-09-01T20:55:25.282Z,98655.78
2022-09-01T20:58:07.415Z,98657.22
2022-09-01T21:00:47.371Z,98657.44
2022-09-01T21:06:56.037Z,98664.19
2022-09-01T21:09:45.972Z,98671.47
2022-09-01T21:12:24.428Z,98676.06
2022-09-01T21:21:36.321Z,98666.63
2022-09-01T21:24:04.813Z,98668.59
2022-09-01T21:26:34.130Z,98671.56
2022-09-01T21:29:19.547Z,98680.31
2022-09-01T21:31:47.943Z,98688.84
2022-09-01T21:34:16.931Z,98687.59
2022-09-01T21:36:44.132Z,98697.16
2022-09-01T21:39:12.245Z,98700.63
2022-09-01T21:41:39.527Z,98690.16
2022-09-01T21:44:06.928Z,98694.53
2022-09-01T21:46:34.179Z,98690.81
2022-09-01T21:49:01.185Z,98698.88
2022-09-01T21:51:28.382Z,98694.25
2022-09-01T21:53:55.396Z,98697.88
2022-09-01T21:56:25.913Z,98702.75
2022-09-01T22:04:38.284Z,98709.25
2022-09-01T22:07:06.787Z,98702.69
2022-09-01T22:09:33.995Z,98695.34
2022-09-01T22:12:01.061Z,98695.78
2022-09-01T22:14:29.469Z,98692.16
2022-09-01T22:16:59.078Z,98692.66
2022-09-01T22:19:28.542Z,98699.47
2022-09-01T22:21:55.524Z,98703.59
2022-09-01T22:24:23.425Z,98709.22
2022-09-01T22:26:50.537Z,98701.16
2022-09-01T22:29:18.646Z,98689.25
2022-09-01T22:31:46.168Z,98673.41
2022-09-01T22:34:13.354Z,98692.97
2022-09-01T22:36:44.813Z,98724.97
2022-09-01T22:39:12.794Z,98753.66
2022-09-01T22:41:41.324Z,98752.03
2022-09-01T22:44:10.055Z,98748.63
2022-09-01T22:46:38.807Z,98762.75
2022-09-01T22:49:06.832Z,98769.78
2022-09-01T22:51:34.372Z,98764.22
2022-09-01T22:54:01.410Z,98765.75
2022-09-01T22:56:46.376Z,98759.59
2022-09-01T22:59:15.604Z,98760.84
2022-09-01T23:01:46.194Z,98760.81
2022-09-01T23:04:15.129Z,98760.25
2022-09-01T23:06:46.438Z,98758.97
2022-09-01T23:09:14.897Z,98750.72
2022-09-01T23:11:42.864Z,98749.69
2022-09-01T23:14:10.486Z,98726.03
2022-09-01T23:16:37.835Z,98729.44
2022-09-01T23:19:05.936Z,98730.13
2022-09-01T23:21:36.558Z,98713.25
2022-09-01T23:24:03.964Z,98705.72
2022-09-01T23:26:32.332Z,98698.66
2022-09-01T23:28:59.858Z,98695.72
2022-09-01T23:31:30.192Z,98683.97
2022-09-01T23:39:39.887Z,98634.44
2022-09-01T23:42:07.126Z,98633.47
2022-09-01T23:44:34.455Z,98615.75
2022-09-01T23:47:01.683Z,98596.09
2022-09-01T23:49:29.111Z,98574.19
2022-09-01T23:51:56.137Z,98560.59
2022-09-01T23:54:23.832Z,98537.94
2022-09-01T23:56:50.931Z,98506.75
2022-09-01T23:59:18.106Z,98480.66
